Item Display Status Serial CT Sensor

Mooring Depth: 1 m

 

Deployed Sensor

  • Serial Number: 2461
  • NDBC Property Number: 20981
  • Start Date: 11/16/2018 (14:52:24 Z)
  • End Date: Currently Active
Water Temperature [°C]     6 entries per hour
Showing data from 6/19/2019 (06:50:00 Z) to 6/18/2019 (00:00:01 Z)
Previous Next [ Day | 3-Days | 7-Days ]
First Last
Prev [ Day | 3-Days | 7-Days ] Next
First Last

Start Time:     :
End Time:     :     
Time (in GMT) :00 :50 :40 :30 :20 :10
Previous Next [ Day | 3-Days | 7-Days ]
First Last
Prev [ Day | 3-Days | 7-Days ] Next
First Last


123 => good data
MM => data is determined as missing
-- => data not received/configured
Back to Top Back to Top
6/19/2019 07:00 to 6:10 -- 29.672 29.675 29.675 29.680 29.698
6/19/2019 06:00 to 5:10 29.718 29.737 29.761 29.786 29.758 29.847
6/19/2019 05:00 to 4:10 29.861 29.751 29.752 29.783 29.782 29.825
6/19/2019 04:00 to 3:10 29.884 29.878 29.890 29.908 29.940 29.971
6/19/2019 03:00 to 2:10 29.961 29.917 29.979 30.039 30.065 30.077
6/19/2019 02:00 to 1:10 30.126 30.186 30.210 30.241 30.263 30.252
6/19/2019 01:00 to 0:10 30.322 30.087 30.220 30.287 30.335 30.478
6/19/2019 00:00 to 23:10 30.579 30.388 30.493 30.525 30.464 30.486
6/18/2019 23:00 to 22:10 29.902 30.252 30.293 30.677 30.009 30.254
6/18/2019 22:00 to 21:10 30.087 30.049 29.977 30.030 30.133 29.889
6/18/2019 21:00 to 20:10 29.798 30.154 30.079 30.210 30.388 29.830
6/18/2019 20:00 to 19:10 30.130 30.187 29.819 29.923 30.082 30.159
6/18/2019 19:00 to 18:10 29.892 29.846 29.848 29.718 29.733 29.918
6/18/2019 18:00 to 17:10 29.775 29.829 30.000 29.851 29.711 29.691
6/18/2019 17:00 to 16:10 29.738 29.707 29.717 29.689 29.669 29.627
6/18/2019 16:00 to 15:10 29.631 29.580 29.569 29.554 29.515 29.506
6/18/2019 15:00 to 14:10 29.491 29.476 29.445 29.440 29.429 29.420
6/18/2019 14:00 to 13:10 29.417 29.415 29.411 29.413 29.415 29.419
6/18/2019 13:00 to 12:10 29.415 29.423 29.419 29.426 29.414 29.431
6/18/2019 12:00 to 11:10 29.426 29.425 29.406 29.410 29.406 29.404
6/18/2019 11:00 to 10:10 29.392 29.399 29.402 29.401 29.408 29.417
6/18/2019 10:00 to 9:10 29.417 29.412 29.435 29.429 29.440 29.440
6/18/2019 09:00 to 8:10 29.442 29.435 29.447 29.450 29.451 29.456
6/18/2019 08:00 to 7:10 29.461 29.456 29.454 29.451 29.441 29.451
6/18/2019 07:00 to 6:10 29.446 29.443 29.456 29.455 29.449 29.437
6/18/2019 06:00 to 5:10 29.441 29.450 29.455 29.435 29.445 29.429
6/18/2019 05:00 to 4:10 29.439 29.438 29.445 29.461 29.454 29.453
6/18/2019 04:00 to 3:10 29.433 29.426 29.420 29.433 29.421 29.435
6/18/2019 03:00 to 2:10 29.436 29.389 29.395 29.417 29.429 29.411
6/18/2019 02:00 to 1:10 29.411 29.409 29.440 29.434 29.462 29.484
6/18/2019 01:00 to 0:10 29.488 29.482 29.499 29.507 29.527 29.546

 

 

 

Conductivity [S/m]     6 entries per hour
Showing data from 6/19/2019 (06:50:00 Z) to 6/18/2019 (00:00:01 Z)
Previous Next [ Day | 3-Days | 7-Days ]
First Last
Prev [ Day | 3-Days | 7-Days ] Next
First Last

Start Time:     :
End Time:     :     
Time (in GMT) :00 :50 :40 :30 :20 :10
Previous Next [ Day | 3-Days | 7-Days ]
First Last
Prev [ Day | 3-Days | 7-Days ] Next
First Last


123 => good data
MM => data is determined as missing
-- => data not received/configured
Back to Top Back to Top
6/19/2019 07:00 to 6:10 -- 5.62806 5.62823 5.62817 5.62839 5.63022
6/19/2019 06:00 to 5:10 5.63186 5.63418 5.63632 5.63878 5.63673 5.64491
6/19/2019 05:00 to 4:10 5.64837 5.63621 5.63673 5.63988 5.63946 5.64311
6/19/2019 04:00 to 3:10 5.64959 5.64840 5.64937 5.65211 5.65417 5.65673
6/19/2019 03:00 to 2:10 5.65635 5.65396 5.65836 5.66311 5.66360 5.66368
6/19/2019 02:00 to 1:10 5.66717 5.67300 5.67761 5.68148 5.68099 5.67545
6/19/2019 01:00 to 0:10 5.67567 5.66175 5.66245 5.66752 5.68061 5.69324
6/19/2019 00:00 to 23:10 5.70182 5.70485 5.70982 5.71876 5.70611 5.71072
6/18/2019 23:00 to 22:10 5.68160 5.69289 5.69780 5.72764 5.68269 5.70018
6/18/2019 22:00 to 21:10 5.68931 5.66831 5.66704 5.66800 5.67668 5.65073
6/18/2019 21:00 to 20:10 5.64922 5.68888 5.67928 5.68522 5.70346 5.64535
6/18/2019 20:00 to 19:10 5.67274 5.67928 5.66759 5.66811 5.67053 5.67773
6/18/2019 19:00 to 18:10 5.65669 5.64941 5.64497 5.64234 5.63864 5.65837
6/18/2019 18:00 to 17:10 5.64793 5.65969 5.66122 5.65268 5.63252 5.63867
6/18/2019 17:00 to 16:10 5.63870 5.63667 5.63506 5.62839 5.62929 5.62752
6/18/2019 16:00 to 15:10 5.62362 5.61964 5.61737 5.61541 5.61136 5.60937
6/18/2019 15:00 to 14:10 5.60601 5.60467 5.60168 5.60101 5.60011 5.60011
6/18/2019 14:00 to 13:10 5.60038 5.60024 5.60070 5.60134 5.60226 5.60263
6/18/2019 13:00 to 12:10 5.60298 5.60318 5.60313 5.60362 5.60269 5.60364
6/18/2019 12:00 to 11:10 5.60356 5.60236 5.60217 5.60266 5.60266 5.60147
6/18/2019 11:00 to 10:10 5.59984 5.60057 5.60125 5.60102 5.60272 5.60456
6/18/2019 10:00 to 9:10 5.60467 5.60573 5.60701 5.60818 5.60948 5.60995
6/18/2019 09:00 to 8:10 5.60988 5.61014 5.61027 5.61166 5.61147 5.61215
6/18/2019 08:00 to 7:10 5.61291 5.61272 5.61291 5.61259 5.61280 5.61337
6/18/2019 07:00 to 6:10 5.61288 5.61324 5.61419 5.61395 5.61321 5.61288
6/18/2019 06:00 to 5:10 5.61302 5.61397 5.61433 5.61158 5.61229 5.61011
6/18/2019 05:00 to 4:10 5.61019 5.60995 5.60840 5.61087 5.60812 5.60576
6/18/2019 04:00 to 3:10 5.60562 5.60109 5.59968 5.60190 5.59680 5.59922
6/18/2019 03:00 to 2:10 5.60063 5.59214 5.59052 5.59371 5.59547 5.59179
6/18/2019 02:00 to 1:10 5.58356 5.58970 5.59225 5.58497 5.58968 5.60918
6/18/2019 01:00 to 0:10 5.60958 5.60856 5.61569 5.61690 5.61757 5.61997

 

 

 

Salinity [psu]     6 entries per hour
Showing data from 6/19/2019 (06:50:00 Z) to 6/18/2019 (00:00:01 Z)
Previous Next [ Day | 3-Days | 7-Days ]
First Last
Prev [ Day | 3-Days | 7-Days ] Next
First Last

Start Time:     :
End Time:     :     
Time (in GMT) :00 :50 :40 :30 :20 :10
Previous Next [ Day | 3-Days | 7-Days ]
First Last
Prev [ Day | 3-Days | 7-Days ] Next
First Last


123 => good data
MM => data is determined as missing
-- => data not received/configured
Back to Top Back to Top
6/19/2019 07:00 to 6:10 -- 33.83 33.83 33.83 33.83 33.83
6/19/2019 06:00 to 5:10 33.82 33.82 33.82 33.82 33.83 33.82
6/19/2019 05:00 to 4:10 33.83 33.83 33.83 33.83 33.83 33.82
6/19/2019 04:00 to 3:10 33.83 33.82 33.82 33.83 33.82 33.81
6/19/2019 03:00 to 2:10 33.82 33.83 33.82 33.81 33.79 33.79
6/19/2019 02:00 to 1:10 33.78 33.77 33.79 33.79 33.77 33.74
6/19/2019 01:00 to 0:10 33.70 33.77 33.68 33.67 33.72 33.71
6/19/2019 00:00 to 23:10 33.69 33.85 33.81 33.84 33.80 33.82
6/18/2019 23:00 to 22:10 34.03 33.86 33.86 33.80 33.96 33.91
6/18/2019 22:00 to 21:10 33.95 33.84 33.88 33.85 33.83 33.83
6/18/2019 21:00 to 20:10 33.88 33.90 33.89 33.84 33.84 33.84
6/18/2019 20:00 to 19:10 33.81 33.81 33.99 33.92 33.83 33.82
6/18/2019 19:00 to 18:10 33.87 33.85 33.82 33.89 33.86 33.86
6/18/2019 18:00 to 17:10 33.89 33.93 33.82 33.87 33.83 33.89
6/18/2019 17:00 to 16:10 33.85 33.86 33.84 33.82 33.84 33.86
6/18/2019 16:00 to 15:10 33.83 33.84 33.83 33.83 33.83 33.82
6/18/2019 15:00 to 14:10 33.81 33.81 33.81 33.81 33.81 33.82
6/18/2019 14:00 to 13:10 33.82 33.82 33.83 33.83 33.83 33.83
6/18/2019 13:00 to 12:10 33.84 33.84 33.84 33.84 33.84 33.83
6/18/2019 12:00 to 11:10 33.84 33.83 33.84 33.84 33.84 33.84
6/18/2019 11:00 to 10:10 33.83 33.83 33.84 33.84 33.84 33.85
6/18/2019 10:00 to 9:10 33.85 33.86 33.85 33.87 33.87 33.87
6/18/2019 09:00 to 8:10 33.87 33.87 33.87 33.87 33.87 33.87
6/18/2019 08:00 to 7:10 33.87 33.88 33.88 33.88 33.89 33.88
6/18/2019 07:00 to 6:10 33.89 33.89 33.89 33.89 33.88 33.89
6/18/2019 06:00 to 5:10 33.89 33.89 33.89 33.88 33.88 33.88
6/18/2019 05:00 to 4:10 33.87 33.87 33.86 33.86 33.85 33.83
6/18/2019 04:00 to 3:10 33.84 33.82 33.81 33.82 33.79 33.80
6/18/2019 03:00 to 2:10 33.81 33.78 33.77 33.77 33.78 33.77
6/18/2019 02:00 to 1:10 33.71 33.75 33.75 33.70 33.72 33.83
6/18/2019 01:00 to 0:10 33.83 33.83 33.87 33.87 33.86 33.86